createdAt,value
2018-12-13T00:00:12.110Z,1.55
2018-12-13T00:05:17.394Z,1.55
2018-12-13T00:10:20.815Z,1.61
2018-12-13T00:15:30.445Z,1.67
2018-12-13T00:20:33.951Z,1.73
2018-12-13T00:25:38.011Z,1.60
2018-12-13T00:30:41.500Z,1.57
2018-12-13T00:35:44.794Z,1.56
2018-12-13T00:40:47.987Z,1.73
2018-12-13T00:45:51.211Z,1.68
2018-12-13T00:50:54.575Z,1.53
2018-12-13T00:55:57.928Z,1.51
2018-12-13T01:01:01.252Z,1.51
2018-12-13T01:06:05.134Z,1.40
2018-12-13T01:11:08.306Z,1.15
2018-12-13T01:21:31.566Z,1.08
2018-12-13T01:26:34.823Z,1.12
2018-12-13T01:31:38.249Z,0.92
2018-12-13T01:36:41.525Z,0.99
2018-12-13T01:41:44.811Z,0.98
2018-12-13T01:46:48.055Z,0.95
2018-12-13T01:51:51.357Z,0.90
2018-12-13T01:56:54.732Z,0.91
2018-12-13T02:01:57.933Z,0.88
2018-12-13T02:07:01.208Z,0.90
2018-12-13T02:12:04.524Z,0.84
2018-12-13T02:17:08.172Z,0.76
2018-12-13T02:22:11.534Z,0.64
2018-12-13T02:27:14.986Z,0.57
2018-12-13T02:32:18.472Z,0.57
2018-12-13T02:37:21.689Z,0.55
2018-12-13T02:42:24.880Z,0.45
2018-12-13T02:47:28.183Z,0.25
2018-12-13T02:52:31.539Z,0.23
2018-12-13T02:57:34.867Z,-0.14
2018-12-13T03:02:38.068Z,-0.14
2018-12-13T03:07:41.365Z,-0.24
2018-12-13T03:12:44.756Z,-0.31
2018-12-13T03:17:48.013Z,-0.36
2018-12-13T03:22:51.263Z,-0.53
2018-12-13T03:27:54.798Z,-0.56
2018-12-13T03:32:57.994Z,-0.64
2018-12-13T03:38:02.279Z,-0.63
2018-12-13T03:43:05.626Z,-0.64
2018-12-13T03:48:08.905Z,-0.78
2018-12-13T03:53:12.150Z,-0.97
2018-12-13T03:58:15.642Z,-0.99
2018-12-13T04:03:25.583Z,-0.95
2018-12-13T04:08:28.857Z,-1.10
2018-12-13T04:13:32.574Z,-1.17
2018-12-13T04:18:37.511Z,-1.24
2018-12-13T04:23:43.117Z,-1.32
2018-12-13T04:28:46.889Z,-1.34
2018-12-13T04:33:50.200Z,-1.26
2018-12-13T04:38:53.346Z,-1.30
2018-12-13T04:43:56.715Z,-1.31
2018-12-13T04:49:00.073Z,-1.17
2018-12-13T04:54:03.452Z,-1.24
2018-12-13T04:59:06.812Z,-1.11
2018-12-13T05:04:10.155Z,-1.23
2018-12-13T05:09:14.363Z,-1.26
2018-12-13T05:14:18.720Z,-1.13
2018-12-13T05:19:22.199Z,-1.21
2018-12-13T05:24:25.355Z,-1.24
2018-12-13T05:29:28.635Z,-1.25
2018-12-13T05:34:31.833Z,-1.11
2018-12-13T05:39:35.140Z,-0.95
2018-12-13T05:44:38.477Z,-0.55
2018-12-13T05:49:41.661Z,-0.41
2018-12-13T05:54:44.897Z,-0.21
2018-12-13T05:59:48.464Z,0.02
2018-12-13T06:04:51.665Z,0.10
2018-12-13T06:09:55.075Z,0.31
2018-12-13T06:14:58.475Z,0.35
2018-12-13T06:20:01.916Z,0.49
2018-12-13T06:25:05.522Z,0.41
2018-12-13T06:30:09.253Z,0.60
2018-12-13T06:35:12.659Z,0.71
2018-12-13T06:40:16.684Z,0.90
2018-12-13T06:45:19.972Z,1.12
2018-12-13T06:50:23.313Z,1.19
2018-12-13T06:55:26.622Z,1.48
2018-12-13T07:00:30.068Z,1.32
2018-12-13T07:05:33.714Z,1.54
2018-12-13T07:10:37.109Z,1.75
2018-12-13T07:15:40.437Z,1.85
2018-12-13T07:20:43.934Z,1.84
2018-12-13T07:25:47.187Z,2.21
2018-12-13T07:30:50.666Z,2.35
2018-12-13T07:35:54.065Z,2.23
2018-12-13T07:40:57.417Z,2.16
2018-12-13T07:46:00.661Z,2.30
2018-12-13T07:51:04.103Z,2.45
2018-12-13T07:56:07.502Z,2.83
2018-12-13T08:01:10.803Z,2.73
2018-12-13T08:06:14.048Z,2.54
2018-12-13T08:11:17.339Z,2.52
2018-12-13T08:16:20.597Z,2.72
2018-12-13T08:21:26.544Z,2.86
2018-12-13T08:26:29.758Z,3.14
2018-12-13T08:31:33.043Z,3.20
2018-12-13T08:36:36.567Z,3.41
2018-12-13T08:41:39.762Z,3.55
2018-12-13T08:46:43.075Z,3.33
2018-12-13T08:51:46.346Z,3.34
2018-12-13T08:56:49.778Z,3.46
2018-12-13T09:01:53.301Z,3.53
2018-12-13T09:06:57.104Z,3.58
2018-12-13T09:12:00.680Z,3.66
2018-12-13T09:17:03.954Z,3.89
2018-12-13T09:22:07.603Z,4.03
2018-12-13T09:27:10.872Z,4.25
2018-12-13T09:32:14.151Z,4.62
2018-12-13T09:37:17.380Z,4.88
2018-12-13T09:42:20.538Z,5.02
2018-12-13T09:47:24.143Z,4.92
2018-12-13T09:52:27.595Z,5.14
2018-12-13T09:57:34.568Z,5.36
2018-12-13T10:02:38.045Z,5.41
2018-12-13T10:07:41.527Z,5.21
2018-12-13T10:12:44.766Z,5.21
2018-12-13T10:17:48.085Z,5.56
2018-12-13T10:22:51.449Z,5.68
2018-12-13T10:27:54.908Z,5.73
2018-12-13T10:32:58.281Z,5.73
2018-12-13T10:38:01.588Z,5.76
2018-12-13T10:43:04.835Z,5.81
2018-12-13T10:48:09.073Z,6.01
2018-12-13T10:53:12.344Z,6.13
2018-12-13T10:58:15.624Z,6.10
2018-12-13T11:03:25.251Z,6.27
2018-12-13T11:08:28.498Z,6.36
2018-12-13T11:13:31.780Z,6.30
2018-12-13T11:18:35.083Z,6.27
2018-12-13T11:23:38.367Z,6.35
2018-12-13T11:29:56.730Z,6.21
2018-12-13T11:35:00.008Z,6.19
2018-12-13T11:40:03.288Z,6.12
2018-12-13T11:45:07.924Z,6.19
2018-12-13T11:50:11.415Z,6.16
2018-12-13T11:55:34.884Z,6.19
2018-12-13T12:00:38.310Z,6.17
2018-12-13T12:05:41.609Z,6.16
2018-12-13T12:10:45.044Z,6.07
2018-12-13T12:15:49.498Z,6.04
2018-12-13T12:20:52.767Z,5.99
2018-12-13T12:25:56.216Z,5.98
2018-12-13T12:30:59.637Z,5.91
2018-12-13T12:36:03.132Z,5.87
2018-12-13T12:41:07.567Z,5.86
2018-12-13T12:46:11.609Z,5.90
2018-12-13T12:51:14.942Z,5.80
2018-12-13T12:56:18.144Z,5.78
2018-12-13T13:01:21.508Z,5.76
2018-12-13T13:06:24.866Z,5.77
2018-12-13T13:11:28.275Z,5.68
2018-12-13T13:16:31.587Z,5.67
2018-12-13T13:21:34.908Z,5.57
2018-12-13T13:26:38.230Z,5.49
2018-12-13T13:31:41.570Z,5.43
2018-12-13T13:36:44.962Z,5.40
2018-12-13T13:41:48.182Z,5.40
2018-12-13T13:46:52.842Z,5.32
2018-12-13T13:51:56.407Z,5.13
2018-12-13T13:56:59.801Z,5.00
2018-12-13T14:02:03.209Z,5.08
2018-12-13T14:07:06.678Z,5.00
2018-12-13T14:12:09.885Z,4.91
2018-12-13T14:17:13.158Z,4.68
2018-12-13T14:22:16.510Z,4.32
2018-12-13T14:27:21.277Z,4.02
2018-12-13T14:32:24.522Z,3.70
2018-12-13T14:37:28.085Z,3.53
2018-12-13T14:42:31.346Z,3.28
2018-12-13T14:47:35.812Z,3.08
2018-12-13T14:52:39.112Z,2.87
2018-12-13T14:57:42.373Z,2.60
2018-12-13T15:02:46.203Z,2.45
2018-12-13T15:07:49.660Z,2.29
2018-12-13T15:12:53.123Z,2.24
2018-12-13T15:17:56.751Z,1.97
2018-12-13T15:23:00.268Z,1.80
2018-12-13T15:28:03.543Z,1.64
2018-12-13T15:33:06.801Z,1.50
2018-12-13T15:38:10.245Z,1.42
2018-12-13T15:43:13.772Z,1.22
2018-12-13T15:48:17.322Z,1.22
2018-12-13T15:53:20.770Z,1.06
2018-12-13T15:58:24.563Z,0.95
2018-12-13T16:03:28.496Z,0.79
2018-12-13T16:08:32.032Z,0.62
2018-12-13T16:13:35.609Z,0.65
2018-12-13T16:18:41.057Z,0.80
2018-12-13T16:23:44.481Z,0.71
2018-12-13T16:28:48.042Z,0.67
2018-12-13T16:33:51.617Z,0.78
2018-12-13T16:38:56.536Z,0.68
2018-12-13T16:44:00.782Z,0.58
2018-12-13T16:49:05.393Z,0.56
2018-12-13T16:54:09.343Z,0.54
2018-12-13T16:59:14.218Z,0.53
2018-12-13T17:04:19.694Z,0.56
2018-12-13T17:09:23.203Z,0.53
2018-12-13T17:14:26.753Z,0.54
2018-12-13T17:19:30.573Z,0.47
2018-12-13T17:24:34.304Z,0.48
2018-12-13T17:29:37.805Z,0.45
2018-12-13T17:34:41.592Z,0.33
2018-12-13T17:39:46.207Z,0.47
2018-12-13T17:44:50.496Z,0.48
2018-12-13T17:49:54.374Z,0.64
2018-12-13T17:54:58.202Z,0.65
2018-12-13T18:00:02.235Z,0.71
2018-12-13T18:05:07.828Z,0.87
2018-12-13T18:10:11.726Z,0.84
2018-12-13T18:15:15.134Z,0.87
2018-12-13T18:20:18.487Z,0.83
2018-12-13T18:25:22.867Z,0.74
2018-12-13T18:30:26.049Z,0.67
2018-12-13T18:35:29.534Z,0.61
2018-12-13T18:40:35.602Z,0.50
2018-12-13T18:45:38.445Z,0.38
2018-12-13T18:50:41.733Z,0.41
2018-12-13T18:55:45.051Z,0.48
2018-12-13T19:00:48.368Z,0.52
2018-12-13T19:05:51.819Z,0.49
2018-12-13T19:10:55.581Z,0.36
2018-12-13T19:16:01.295Z,0.27
2018-12-13T19:21:05.004Z,0.29
2018-12-13T19:26:09.548Z,0.20
2018-12-13T19:31:12.948Z,0.20
2018-12-13T19:36:17.213Z,0.10
2018-12-13T19:41:21.511Z,0.06
2018-12-13T19:46:25.839Z,0.18
2018-12-13T19:51:29.201Z,0.10
2018-12-13T19:56:32.377Z,0.15
2018-12-13T20:01:40.719Z,0.18
2018-12-13T20:06:48.751Z,0.11
2018-12-13T20:11:52.102Z,-0.02
2018-12-13T20:16:55.455Z,-0.05
2018-12-13T20:21:58.721Z,0.01
2018-12-13T20:27:02.155Z,0.14
2018-12-13T20:32:05.503Z,0.20
2018-12-13T20:37:08.701Z,0.25
2018-12-13T20:42:12.091Z,0.35
2018-12-13T20:47:15.366Z,0.30
2018-12-13T20:52:18.882Z,0.46
2018-12-13T20:57:22.336Z,0.38
2018-12-13T21:02:25.635Z,0.18
2018-12-13T21:07:34.651Z,0.05
2018-12-13T21:12:38.193Z,-0.10
2018-12-13T21:17:41.625Z,-0.06
2018-12-13T21:22:44.976Z,-0.13
2018-12-13T21:27:48.325Z,-0.06
2018-12-13T21:32:53.845Z,-0.08
2018-12-13T21:37:58.350Z,0.02
2018-12-13T21:43:01.973Z,0.03
2018-12-13T21:48:05.360Z,0.02
2018-12-13T21:53:08.644Z,-0.10
2018-12-13T21:58:12.106Z,-0.01
2018-12-13T22:03:15.459Z,0.07
2018-12-13T22:08:18.644Z,0.12
2018-12-13T22:13:22.170Z,0.24
2018-12-13T22:18:25.459Z,0.24
2018-12-13T22:23:29.763Z,0.21
2018-12-13T22:28:33.070Z,0.33
2018-12-13T22:33:36.498Z,0.27
2018-12-13T22:38:39.796Z,0.30
2018-12-13T22:43:43.079Z,0.18
2018-12-13T22:48:46.405Z,0.10
2018-12-13T22:53:49.576Z,0.25
2018-12-13T22:58:53.140Z,0.27
2018-12-13T23:03:56.472Z,0.44
2018-12-13T23:08:59.727Z,0.39
2018-12-13T23:14:03.270Z,0.24
2018-12-13T23:19:06.525Z,0.21
2018-12-13T23:24:09.907Z,0.29
2018-12-13T23:29:13.019Z,0.44
2018-12-13T23:34:17.401Z,0.44
2018-12-13T23:39:20.906Z,0.49
2018-12-13T23:44:24.322Z,0.65
2018-12-13T23:49:27.489Z,0.65
2018-12-13T23:54:30.731Z,0.47
2018-12-13T23:59:34.025Z,0.52
